Time;durP1;ratioP1;P1;durP2;ratioP2;P2;SDS_P1;SDS_P2;PMS_P1;PMS_P2;Temp;Humidity;BMP_temperature;BMP_pressure;BME280_temperature;BME280_humidity;BME280_pressure;Samples;Min_cycle;Max_cycle;Signal;HPM_P1;HPM_P2
2023/04/07 00:02:19;;;;;;;55.33;31.10;;;7.50;99.90;;;;;;5091949;28;20294;-54
2023/04/07 00:04:44;;;;;;;51.80;31.23;;;7.40;99.90;;;;;;5092156;28;20024;-53
2023/04/07 00:07:10;;;;;;;53.30;31.90;;;7.40;99.90;;;;;;5092204;28;20020;-52
2023/04/07 00:09:36;;;;;;;54.27;32.27;;;7.40;99.90;;;;;;5092334;28;20156;-51
2023/04/07 00:12:01;;;;;;;52.60;30.03;;;7.50;99.90;;;;;;5092244;28;20035;-52
2023/04/07 00:14:28;;;;;;;59.83;34.40;;;7.40;99.90;;;;;;5091727;28;20040;-54
2023/04/07 00:16:53;;;;;;;60.83;34.57;;;7.40;99.90;;;;;;5091915;28;20043;-53
2023/04/07 00:19:19;;;;;;;60.60;33.27;;;7.40;99.90;;;;;;5091881;28;20028;-54
2023/04/07 00:21:45;;;;;;;60.23;34.43;;;7.40;99.90;;;;;;5091980;28;20078;-54
2023/04/07 00:24:11;;;;;;;59.83;33.17;;;7.40;99.90;;;;;;5090448;28;20469;-51
2023/04/07 00:26:37;;;;;;;68.23;36.13;;;7.40;99.90;;;;;;5091701;28;20036;-51
2023/04/07 00:29:02;;;;;;;63.87;34.53;;;7.40;99.90;;;;;;5090519;28;20035;-52
2023/04/07 00:31:28;;;;;;;69.17;36.37;;;7.40;99.90;;;;;;5090465;28;20498;-55
2023/04/07 00:33:56;;;;;;;64.47;34.23;;;7.40;99.90;;;;;;5090191;28;20508;-49
2023/04/07 00:36:22;;;;;;;61.50;34.50;;;7.40;99.90;;;;;;5091716;28;20028;-52
2023/04/07 00:38:48;;;;;;;62.57;33.87;;;7.40;99.90;;;;;;5090199;28;20035;-52
2023/04/07 00:41:14;;;;;;;65.60;34.13;;;7.50;99.90;;;;;;5073444;28;20024;-52
2023/04/07 00:43:40;;;;;;;64.93;35.33;;;7.50;99.90;;;;;;5091262;28;20028;-50
2023/04/07 00:46:06;;;;;;;70.23;35.17;;;7.50;99.90;;;;;;5090185;28;20043;-54
2023/04/07 00:48:32;;;;;;;61.73;34.50;;;7.40;99.90;;;;;;5091263;28;20036;-54
2023/04/07 00:50:58;;;;;;;72.93;36.70;;;7.50;99.90;;;;;;5091809;28;20053;-54
2023/04/07 00:53:24;;;;;;;70.23;37.10;;;7.40;99.90;;;;;;5091289;28;20063;-52
2023/04/07 00:55:50;;;;;;;71.23;37.67;;;7.40;99.90;;;;;;5091651;28;20023;-52
2023/04/07 00:58:16;;;;;;;75.00;38.03;;;7.40;99.90;;;;;;5091163;28;20032;-52
2023/04/07 01:00:48;;;;;;;75.77;39.27;;;7.40;99.90;;;;;;5089768;28;20404;-52
2023/04/07 01:03:45;;;;;;;87.57;40.53;;;7.40;99.90;;;;;;5091391;28;20024;-52
2023/04/07 01:06:16;;;;;;;80.80;39.23;;;7.50;99.90;;;;;;5090085;28;20069;-48
2023/04/07 01:09:09;;;;;;;76.30;38.03;;;7.40;99.90;;;;;;5089891;28;20460;-50
2023/04/07 01:11:43;;;;;;;77.73;37.97;;;7.50;99.90;;;;;;5091051;28;20328;-53
2023/04/07 01:14:17;;;;;;;80.17;38.90;;;7.50;99.90;;;;;;5099442;22;20044;-56
2023/04/07 01:16:49;;;;;;;79.33;40.17;;;7.50;99.90;;;;;;5090845;28;20424;-54
2023/04/07 01:19:37;;;;;;;78.27;37.90;;;7.50;99.90;;;;;;5089615;28;20055;-54
2023/04/07 01:22:12;;;;;;;84.03;39.97;;;7.50;99.90;;;;;;5089630;28;20031;-56
2023/04/07 01:24:54;;;;;;;89.53;40.93;;;7.60;99.90;;;;;;5089317;28;20035;-56
2023/04/07 01:27:31;;;;;;;79.27;37.77;;;7.60;99.90;;;;;;5089359;28;20115;-56
2023/04/07 01:30:00;;;;;;;83.10;40.57;;;7.60;99.90;;;;;;5089336;28;20028;-54
2023/04/07 01:32:26;;;;;;;86.03;40.05;;;7.60;99.90;;;;;;5089569;28;20028;-54
2023/04/07 01:34:54;;;;;;;95.03;42.33;;;7.60;99.90;;;;;;5089127;28;20063;-56
2023/04/07 01:37:21;;;;;;;90.90;41.60;;;7.60;99.90;;;;;;5090832;28;20035;-56
2023/04/07 01:39:47;;;;;;;88.77;40.30;;;7.60;99.90;;;;;;5090544;28;20406;-54
2023/04/07 01:42:14;;;;;;;89.67;40.03;;;7.70;99.90;;;;;;5089367;28;20028;-54
2023/04/07 01:44:41;;;;;;;100.37;41.87;;;7.70;99.90;;;;;;5088927;28;20512;-53
2023/04/07 01:47:07;;;;;;;93.93;42.20;;;7.70;99.90;;;;;;5090477;28;20032;-55
2023/04/07 01:49:35;;;;;;;88.03;40.87;;;7.70;99.90;;;;;;5090463;28;20032;-54
2023/04/07 01:52:01;;;;;;;85.27;39.43;;;7.80;99.90;;;;;;5089338;28;20024;-54
2023/04/07 01:54:28;;;;;;;87.10;39.47;;;7.80;99.90;;;;;;5090271;28;20028;-56
2023/04/07 01:56:53;;;;;;;87.80;37.87;;;7.80;99.90;;;;;;5088886;28;20025;-55
2023/04/07 01:59:20;;;;;;;95.87;39.70;;;7.80;99.90;;;;;;5088991;28;20158;-54
2023/04/07 02:01:47;;;;;;;104.53;39.83;;;7.80;99.90;;;;;;5089405;28;20613;-55
2023/04/07 02:04:25;;;;;;;95.93;38.47;;;7.90;99.90;;;;;;5088894;28;20083;-54
2023/04/07 02:06:58;;;;;;;98.17;37.60;;;7.90;99.90;;;;;;5090490;28;20107;-54
2023/04/07 02:09:35;;;;;;;92.57;34.63;;;7.90;99.90;;;;;;5089054;28;20070;-55
2023/04/07 02:12:04;;;;;;;109.50;38.10;;;8.00;99.90;;;;;;5090349;28;20034;-57
2023/04/07 02:14:35;;;;;;;119.83;37.37;;;8.00;99.90;;;;;;5088654;28;20465;-55
2023/04/07 02:17:05;;;;;;;109.97;37.30;;;8.10;99.90;;;;;;5088837;28;20112;-54
2023/04/07 02:19:34;;;;;;;117.53;38.97;;;8.10;99.90;;;;;;5088885;28;20028;-53
2023/04/07 02:22:03;;;;;;;111.88;37.33;;;8.10;99.90;;;;;;5090349;28;20028;-55
2023/04/07 02:24:29;;;;;;;120.55;38.28;;;8.10;99.90;;;;;;5091921;28;20135;-54
2023/04/07 02:26:55;;;;;;;117.43;37.60;;;8.10;99.90;;;;;;5092673;28;20539;-55
2023/04/07 02:29:21;;;;;;;112.10;37.23;;;8.10;99.90;;;;;;5094364;28;20107;-54
2023/04/07 02:31:46;;;;;;;108.07;37.23;;;8.10;99.90;;;;;;5094167;28;20499;-57
2023/04/07 02:34:12;;;;;;;104.57;34.73;;;8.10;99.90;;;;;;5075723;28;20032;-56
2023/04/07 02:36:38;;;;;;;108.67;35.90;;;8.10;99.90;;;;;;5092652;28;20403;-56
2023/04/07 02:39:06;;;;;;;108.93;35.00;;;8.10;99.90;;;;;;5094079;28;20028;-56
2023/04/07 02:41:31;;;;;;;111.10;36.07;;;8.10;99.90;;;;;;5094188;28;20035;-55
2023/04/07 02:43:58;;;;;;;110.83;34.27;;;8.10;99.90;;;;;;5093658;28;20480;-54
2023/04/07 02:46:24;;;;;;;111.07;35.37;;;8.10;99.90;;;;;;5093808;28;20077;-56
2023/04/07 02:48:51;;;;;;;113.37;36.10;;;8.10;99.90;;;;;;5094232;28;20020;-56
2023/04/07 02:51:16;;;;;;;114.50;36.33;;;8.10;99.90;;;;;;5092387;28;20119;-52
2023/04/07 02:53:42;;;;;;;118.20;36.17;;;8.10;99.90;;;;;;5093329;28;20106;-56
2023/04/07 02:56:10;;;;;;;103.00;34.50;;;8.20;99.90;;;;;;5092503;28;20039;-55
2023/04/07 02:58:35;;;;;;;113.50;34.83;;;8.10;99.90;;;;;;5092010;28;20032;-55
2023/04/07 03:01:01;;;;;;;101.80;33.80;;;8.10;99.90;;;;;;5093704;28;20153;-54
2023/04/07 03:03:30;;;;;;;106.80;32.83;;;8.10;99.90;;;;;;5092043;28;20073;-55
2023/04/07 03:06:15;;;;;;;98.77;32.97;;;8.10;99.90;;;;;;5092192;28;20396;-57
2023/04/07 03:08:53;;;;;;;88.63;30.87;;;8.10;99.90;;;;;;5092110;28;20526;-55
2023/04/07 03:11:18;;;;;;;98.57;30.27;;;8.10;99.90;;;;;;5092115;28;20044;-53
2023/04/07 03:13:44;;;;;;;92.33;32.13;;;8.00;99.90;;;;;;5091680;28;20430;-54
2023/04/07 03:16:11;;;;;;;84.63;30.33;;;8.10;99.90;;;;;;5093801;28;20536;-54
2023/04/07 03:18:47;;;;;;;100.57;32.43;;;8.00;99.90;;;;;;5091808;28;20035;-54
2023/04/07 03:21:13;;;;;;;90.53;29.13;;;8.00;99.90;;;;;;5091934;28;20050;-54
2023/04/07 03:23:40;;;;;;;91.37;30.97;;;8.00;99.90;;;;;;5091493;28;20020;-52
2023/04/07 03:26:06;;;;;;;95.30;30.00;;;8.00;99.90;;;;;;5091860;28;20028;-55
2023/04/07 03:28:35;;;;;;;89.30;30.08;;;8.00;99.90;;;;;;5091558;28;20107;-51
2023/04/07 03:31:01;;;;;;;94.00;30.87;;;8.00;99.90;;;;;;5091718;28;20032;-54
2023/04/07 03:33:27;;;;;;;90.37;30.37;;;8.00;99.90;;;;;;5092668;28;20549;-54
2023/04/07 03:35:54;;;;;;;98.80;30.97;;;8.00;99.90;;;;;;5090523;28;20028;-54
2023/04/07 03:38:21;;;;;;;95.03;30.93;;;8.00;99.90;;;;;;5091413;28;20035;-54
2023/04/07 03:40:50;;;;;;;92.83;30.73;;;8.00;99.90;;;;;;5091349;28;20032;-53
2023/04/07 03:43:16;;;;;;;90.97;31.80;;;8.00;99.90;;;;;;5092715;28;20392;-53
2023/04/07 03:45:43;;;;;;;94.37;31.57;;;8.00;99.90;;;;;;5091310;28;20028;-54
2023/04/07 03:48:10;;;;;;;94.03;31.90;;;8.00;99.90;;;;;;5092545;28;20146;-54
2023/04/07 03:50:41;;;;;;;88.87;30.40;;;8.00;99.90;;;;;;5091254;28;20396;-54
2023/04/07 03:53:16;;;;;;;81.90;29.37;;;7.90;99.90;;;;;;5091209;28;20122;-51
2023/04/07 03:55:43;;;;;;;91.00;30.53;;;7.90;99.90;;;;;;5091108;28;20036;-55
2023/04/07 03:58:18;;;;;;;86.63;30.50;;;7.90;99.90;;;;;;5091003;28;20035;-53
2023/04/07 04:00:46;;;;;;;85.03;29.03;;;7.90;99.90;;;;;;5092265;28;20058;-53
2023/04/07 04:03:12;;;;;;;87.87;28.87;;;7.90;99.90;;;;;;5092198;28;20047;-54
2023/04/07 04:05:51;;;;;;;89.53;28.50;;;7.90;99.90;;;;;;5091068;28;20119;-52
2023/04/07 04:08:22;;;;;;;78.37;27.70;;;7.90;99.90;;;;;;5090708;28;20088;-53
2023/04/07 04:10:48;;;;;;;80.07;28.40;;;7.90;99.90;;;;;;5090785;28;20043;-54
2023/04/07 04:13:14;;;;;;;87.50;29.43;;;7.90;99.90;;;;;;5090663;28;20025;-54
2023/04/07 04:15:42;;;;;;;77.17;28.37;;;8.00;99.90;;;;;;5090704;28;20469;-55
2023/04/07 04:18:13;;;;;;;78.30;27.77;;;7.90;99.90;;;;;;5090780;28;20666;-54
2023/04/07 04:20:39;;;;;;;79.13;27.87;;;7.90;99.90;;;;;;5090649;28;20126;-52
2023/04/07 04:23:05;;;;;;;74.07;27.03;;;7.90;99.90;;;;;;5090471;28;20111;-53
2023/04/07 04:25:33;;;;;;;76.93;26.23;;;7.90;99.90;;;;;;5090455;28;20044;-54
2023/04/07 04:28:00;;;;;;;68.07;25.67;;;7.90;99.90;;;;;;5090405;28;20035;-54
2023/04/07 04:30:26;;;;;;;65.13;24.20;;;7.90;99.90;;;;;;5090569;28;20024;-54
2023/04/07 04:32:59;;;;;;;60.27;22.27;;;7.90;99.90;;;;;;5090379;28;20618;-54
2023/04/07 04:35:45;;;;;;;61.33;23.20;;;7.90;99.90;;;;;;5092079;28;20119;-54
2023/04/07 04:38:15;;;;;;;59.03;23.30;;;7.90;99.90;;;;;;5090252;28;20024;-54
2023/04/07 04:40:46;;;;;;;62.13;22.93;;;7.90;99.90;;;;;;5090311;28;20032;-54
2023/04/07 04:43:13;;;;;;;62.23;22.73;;;7.90;99.90;;;;;;5090267;28;20039;-54
2023/04/07 04:45:40;;;;;;;63.73;23.50;;;7.90;99.90;;;;;;5090353;28;20039;-53
2023/04/07 04:48:10;;;;;;;63.83;22.85;;;7.90;99.90;;;;;;5089821;28;20028;-53
2023/04/07 04:50:36;;;;;;;62.13;22.93;;;7.90;99.90;;;;;;5090085;28;20502;-54
2023/04/07 04:53:06;;;;;;;59.83;21.97;;;7.80;99.90;;;;;;5089929;28;20028;-54
2023/04/07 04:55:31;;;;;;;58.20;21.70;;;7.80;99.90;;;;;;5089849;28;20028;-54
2023/04/07 04:57:58;;;;;;;59.83;21.20;;;7.80;99.90;;;;;;5089788;28;20455;-55
2023/04/07 05:00:33;;;;;;;62.63;22.23;;;7.90;99.90;;;;;;5089850;28;20032;-55
2023/04/07 05:03:03;;;;;;;;;;;7.80;99.90;;;;;;5090509;28;20270;-55
2023/04/07 05:05:32;;;;;;;57.92;20.15;;;7.80;99.90;;;;;;5089742;28;19917;-54
2023/04/07 05:07:59;;;;;;;59.07;21.07;;;7.80;99.90;;;;;;5089610;28;20040;-52
2023/04/07 05:10:30;;;;;;;57.43;20.87;;;7.80;99.90;;;;;;5089816;28;20028;-55
2023/04/07 05:12:56;;;;;;;55.07;19.87;;;7.80;99.90;;;;;;5089516;28;20035;-52
2023/04/07 05:15:21;;;;;;;53.17;19.13;;;7.70;99.90;;;;;;5090899;28;20111;-54
2023/04/07 05:17:49;;;;;;;57.73;20.33;;;7.70;99.90;;;;;;5089433;28;20024;-54
2023/04/07 05:20:20;;;;;;;52.73;19.37;;;7.70;99.90;;;;;;5089517;28;20028;-53
2023/04/07 05:22:45;;;;;;;49.03;19.23;;;7.80;99.90;;;;;;5089543;28;20035;-54
2023/04/07 05:25:13;;;;;;;50.43;18.20;;;7.80;99.90;;;;;;5089345;28;20044;-50
2023/04/07 05:27:41;;;;;;;49.30;18.20;;;7.70;99.90;;;;;;5089302;28;20028;-52
2023/04/07 05:30:12;;;;;;;48.67;18.13;;;7.70;99.90;;;;;;5089504;28;20081;-49
2023/04/07 05:32:38;;;;;;;48.50;17.87;;;7.70;99.90;;;;;;5089427;28;20035;-54
2023/04/07 05:35:11;;;;;;;52.93;18.10;;;7.70;99.90;;;;;;5089061;28;20032;-55
2023/04/07 05:37:44;;;;;;;50.30;18.33;;;7.70;99.90;;;;;;5089348;28;20430;-55
2023/04/07 05:40:10;;;;;;;42.33;16.33;;;7.70;99.90;;;;;;5089196;28;20028;-56
2023/04/07 05:42:36;;;;;;;50.37;17.90;;;7.60;99.90;;;;;;5090668;28;20039;-55
2023/04/07 05:45:03;;;;;;;49.67;18.30;;;7.70;99.90;;;;;;5089077;28;20032;-56
2023/04/07 05:47:30;;;;;;;47.93;17.70;;;7.70;99.90;;;;;;5089125;28;20028;-56
2023/04/07 05:49:56;;;;;;;49.63;18.67;;;7.60;99.90;;;;;;5072399;28;20550;-55
2023/04/07 05:52:21;;;;;;;48.73;18.37;;;7.60;99.90;;;;;;5089211;28;20032;-55
2023/04/07 05:54:55;;;;;;;51.83;18.37;;;7.70;99.90;;;;;;5088892;28;20032;-55
2023/04/07 05:57:23;;;;;;;49.60;17.52;;;7.70;99.90;;;;;;5089151;28;20484;-55
2023/04/07 05:59:50;;;;;;;48.90;18.43;;;7.70;99.90;;;;;;5093261;28;20056;-55
2023/04/07 06:02:17;;;;;;;52.67;18.30;;;7.70;99.90;;;;;;5093586;28;20028;-54
2023/04/07 06:04:45;;;;;;;50.60;18.57;;;7.70;99.90;;;;;;5093119;28;20484;-55
2023/04/07 06:07:15;;;;;;;49.43;17.47;;;7.70;99.90;;;;;;5093101;28;20028;-55
2023/04/07 06:09:42;;;;;;;53.63;18.87;;;7.70;99.90;;;;;;5093206;28;20028;-54
2023/04/07 06:12:09;;;;;;;58.57;20.83;;;7.70;99.90;;;;;;5076416;28;20020;-56
2023/04/07 06:14:35;;;;;;;51.73;19.47;;;7.60;99.90;;;;;;5092753;28;20035;-56
2023/04/07 06:17:01;;;;;;;51.27;19.23;;;7.70;99.90;;;;;;5092875;28;20434;-55
2023/04/07 06:19:26;;;;;;;53.37;19.60;;;7.70;99.90;;;;;;5094351;28;20024;-56
2023/04/07 06:21:52;;;;;;;52.83;18.90;;;7.70;99.90;;;;;;5094287;28;20111;-55
2023/04/07 06:24:21;;;;;;;49.77;17.73;;;7.70;99.90;;;;;;5094021;28;20047;-56
2023/04/07 06:26:47;;;;;;;51.45;19.10;;;7.70;99.90;;;;;;5094160;28;20028;-55
2023/04/07 06:29:13;;;;;;;52.77;18.70;;;7.70;99.90;;;;;;5094341;28;20574;-60
2023/04/07 06:31:39;;;;;;;57.43;18.23;;;7.70;99.90;;;;;;5092843;28;20024;-56
2023/04/07 06:34:05;;;;;;;54.93;18.20;;;7.70;99.90;;;;;;5093824;28;20484;-56
2023/04/07 06:36:32;;;;;;;52.37;17.70;;;7.70;99.90;;;;;;5093791;28;20111;-55
2023/04/07 06:38:58;;;;;;;48.13;17.87;;;7.80;99.90;;;;;;5093905;28;20035;-56
2023/04/07 06:41:24;;;;;;;51.77;18.53;;;7.70;99.90;;;;;;5094210;28;20459;-54
2023/04/07 06:43:52;;;;;;;43.13;16.37;;;7.70;99.90;;;;;;5093807;28;20409;-57
2023/04/07 06:46:18;;;;;;;48.80;17.42;;;7.70;99.90;;;;;;5092540;28;20567;-57
2023/04/07 06:48:44;;;;;;;50.00;17.13;;;7.70;99.90;;;;;;5093750;28;20111;-57
2023/04/07 06:51:10;;;;;;;39.93;16.20;;;7.80;99.90;;;;;;5092489;28;20086;-53
2023/04/07 06:53:36;;;;;;;42.70;16.27;;;7.80;99.90;;;;;;5093531;28;20031;-55
2023/04/07 06:56:06;;;;;;;43.07;16.37;;;7.80;99.90;;;;;;5093655;28;20035;-57
2023/04/07 06:58:33;;;;;;;44.47;15.60;;;7.80;99.90;;;;;;5093482;28;20100;-57
2023/04/07 07:01:00;;;;;;;40.43;15.63;;;7.90;99.90;;;;;;5093612;28;20036;-55
2023/04/07 07:03:26;;;;;;;36.13;14.50;;;7.90;99.90;;;;;;5093225;28;20544;-56
2023/04/07 07:05:55;;;;;;;39.30;14.73;;;8.00;99.90;;;;;;5093571;28;20059;-57
2023/04/07 07:08:21;;;;;;;35.25;14.57;;;8.00;99.90;;;;;;5093357;28;20047;-56
2023/04/07 07:10:47;;;;;;;32.50;13.50;;;8.10;99.90;;;;;;5093340;28;20036;-54
2023/04/07 07:13:13;;;;;;;34.50;14.27;;;8.10;99.90;;;;;;5093308;28;20046;-52
2023/04/07 07:15:39;;;;;;;35.87;14.57;;;8.10;99.90;;;;;;5104075;22;20496;-53
2023/04/07 07:18:04;;;;;;;37.83;14.40;;;8.10;99.90;;;;;;5093006;28;20039;-53
2023/04/07 07:20:30;;;;;;;34.43;13.50;;;8.10;99.90;;;;;;5093094;28;20035;-50
2023/04/07 07:22:57;;;;;;;37.80;14.53;;;8.10;99.90;;;;;;5093591;28;20035;-54
2023/04/07 07:25:25;;;;;;;36.07;15.07;;;8.10;99.90;;;;;;5093288;28;20028;-52
2023/04/07 07:27:52;;;;;;;42.40;15.23;;;8.10;99.90;;;;;;5092989;28;20073;-51
2023/04/07 07:30:21;;;;;;;40.27;13.90;;;8.10;99.90;;;;;;5093005;28;20118;-52
2023/04/07 07:32:47;;;;;;;32.70;13.03;;;8.10;99.90;;;;;;5093020;28;20036;-51
2023/04/07 07:35:14;;;;;;;36.67;13.57;;;8.10;99.90;;;;;;5092637;28;20073;-53
2023/04/07 07:37:40;;;;;;;31.60;14.03;;;8.10;99.90;;;;;;5092723;28;20027;-52
2023/04/07 07:40:06;;;;;;;36.33;14.67;;;8.10;99.90;;;;;;5092767;28;20054;-54
2023/04/07 07:42:32;;;;;;;30.93;12.77;;;8.20;99.90;;;;;;5092992;28;20052;-52
2023/04/07 07:44:58;;;;;;;29.87;13.30;;;8.20;99.90;;;;;;5092431;28;20515;-51
2023/04/07 07:47:25;;;;;;;28.90;12.60;;;8.20;99.90;;;;;;5092535;28;20129;-52
2023/04/07 07:49:50;;;;;;;27.60;13.67;;;8.30;99.90;;;;;;5092576;28;20035;-51
2023/04/07 07:52:16;;;;;;;31.63;12.43;;;8.20;99.90;;;;;;5092898;28;20036;-54
2023/04/07 07:54:42;;;;;;;33.93;14.60;;;8.30;99.90;;;;;;5092323;28;20115;-52
2023/04/07 07:57:08;;;;;;;34.37;14.57;;;8.30;99.90;;;;;;5092330;28;20067;-52
2023/04/07 07:59:34;;;;;;;34.07;13.73;;;8.20;99.90;;;;;;5092332;28;20028;-54
2023/04/07 08:02:00;;;;;;;32.67;14.73;;;8.20;99.90;;;;;;5092487;28;20028;-52
2023/04/07 08:04:26;;;;;;;36.90;15.37;;;8.30;99.90;;;;;;5092131;28;20032;-53
2023/04/07 08:06:52;;;;;;;33.87;14.83;;;8.30;99.90;;;;;;5092343;28;20210;-52
2023/04/07 08:09:19;;;;;;;41.40;16.23;;;8.30;99.90;;;;;;5092396;28;20032;-51
2023/04/07 08:11:47;;;;;;;38.03;16.47;;;8.30;99.90;;;;;;5092389;28;20067;-53
2023/04/07 08:14:13;;;;;;;41.53;17.03;;;8.30;99.90;;;;;;5091814;28;20042;-54
2023/04/07 08:16:39;;;;;;;42.73;15.73;;;8.20;99.90;;;;;;5091948;28;20035;-53
2023/04/07 08:19:05;;;;;;;45.07;17.53;;;8.20;99.90;;;;;;5092161;28;20035;-54
2023/04/07 08:21:31;;;;;;;45.93;16.87;;;8.20;99.90;;;;;;5091529;28;20422;-53
2023/04/07 08:23:57;;;;;;;42.70;16.80;;;8.10;99.90;;;;;;5091734;28;20039;-52
2023/04/07 08:26:23;;;;;;;49.87;17.67;;;8.10;99.90;;;;;;5091783;28;20036;-53
2023/04/07 08:28:51;;;;;;;49.30;18.20;;;8.10;99.90;;;;;;5091868;28;20560;-51
2023/04/07 08:31:18;;;;;;;42.47;17.05;;;8.10;99.90;;;;;;5092165;28;20035;-54
2023/04/07 08:33:44;;;;;;;44.00;17.00;;;8.10;99.90;;;;;;5091886;28;20447;-54
2023/04/07 08:36:10;;;;;;;45.77;17.00;;;8.10;99.90;;;;;;5091930;28;20023;-51
2023/04/07 08:38:36;;;;;;;56.07;19.20;;;8.20;99.90;;;;;;5091530;28;20032;-54
2023/04/07 08:41:12;;;;;;;49.27;17.53;;;8.20;99.90;;;;;;5091802;28;20044;-50
2023/04/07 08:43:39;;;;;;;46.90;18.70;;;8.20;99.90;;;;;;5091441;28;20031;-51
2023/04/07 08:46:08;;;;;;;48.50;17.70;;;8.30;99.90;;;;;;5091610;28;20020;-53
2023/04/07 08:48:35;;;;;;;41.92;16.75;;;8.30;99.90;;;;;;5091593;28;20020;-52
2023/04/07 08:51:07;;;;;;;42.50;17.33;;;8.30;99.90;;;;;;5091662;28;20052;-51
2023/04/07 08:53:43;;;;;;;54.03;18.27;;;8.30;99.90;;;;;;5091238;28;20035;-53
2023/04/07 08:56:12;;;;;;;41.00;16.83;;;8.30;99.90;;;;;;5090196;28;20503;-53
2023/04/07 08:58:38;;;;;;;41.45;17.35;;;8.20;99.90;;;;;;5091175;28;20035;-53
2023/04/07 09:01:08;;;;;;;40.63;16.13;;;8.30;99.90;;;;;;5091338;28;20059;-53
2023/04/07 09:03:33;;;;;;;40.30;16.15;;;8.30;99.90;;;;;;5091033;28;20039;-53
2023/04/07 09:06:00;;;;;;;36.80;15.43;;;8.30;99.90;;;;;;5091465;28;20025;-54
2023/04/07 09:08:27;;;;;;;42.10;16.63;;;8.40;99.90;;;;;;5090996;28;20310;-51
2023/04/07 09:10:53;;;;;;;42.97;17.20;;;8.30;99.90;;;;;;5091091;28;20035;-53
2023/04/07 09:13:19;;;;;;;51.50;18.33;;;8.40;99.90;;;;;;5090824;28;20024;-54
2023/04/07 09:15:45;;;;;;;45.60;17.07;;;8.40;99.90;;;;;;5091009;28;20043;-52
2023/04/07 09:18:11;;;;;;;38.27;16.13;;;8.40;99.90;;;;;;5090937;28;20492;-53
2023/04/07 09:20:57;;;;;;;43.43;16.90;;;8.40;99.90;;;;;;5091431;28;20120;-53
2023/04/07 09:23:34;;;;;;;38.53;15.30;;;8.30;99.90;;;;;;5090769;28;20063;-50
2023/04/07 09:26:19;;;;;;;39.23;14.73;;;8.40;99.90;;;;;;5091210;28;20031;-51
2023/04/07 09:28:46;;;;;;;39.90;14.33;;;8.40;99.90;;;;;;5090985;28;20035;-53
2023/04/07 09:31:12;;;;;;;36.07;14.80;;;8.40;99.90;;;;;;5091303;28;20035;-52
2023/04/07 09:33:38;;;;;;;36.23;15.30;;;8.40;99.90;;;;;;5089993;28;20039;-53
2023/04/07 09:36:05;;;;;;;37.57;15.47;;;8.40;99.90;;;;;;5089581;28;20468;-52
2023/04/07 09:38:37;;;;;;;41.33;15.13;;;8.40;99.90;;;;;;5091137;28;20411;-53
2023/04/07 09:41:09;;;;;;;35.87;16.57;;;8.40;99.90;;;;;;5090798;28;20032;-53
2023/04/07 09:43:37;;;;;;;40.37;16.10;;;8.40;99.90;;;;;;5090437;28;20035;-53
2023/04/07 09:46:14;;;;;;;39.87;15.80;;;8.50;99.90;;;;;;5090571;28;20460;-51
2023/04/07 09:48:41;;;;;;;36.00;16.33;;;8.50;99.90;;;;;;5090694;28;20032;-53
2023/04/07 09:51:12;;;;;;;36.40;14.53;;;8.60;99.90;;;;;;5090823;28;20435;-53
2023/04/07 09:53:46;;;;;;;38.03;16.27;;;8.60;99.90;;;;;;5090444;28;20055;-52
2023/04/07 09:56:15;;;;;;;37.53;17.53;;;8.70;99.90;;;;;;5090647;28;20039;-54
2023/04/07 09:58:42;;;;;;;36.50;16.60;;;8.70;99.90;;;;;;5090446;28;20495;-51
2023/04/07 10:01:08;;;;;;;36.37;16.53;;;8.70;99.90;;;;;;5090924;28;20032;-53
2023/04/07 10:03:35;;;;;;;40.23;17.30;;;8.80;99.90;;;;;;5090544;28;20025;-53
2023/04/07 10:06:02;;;;;;;39.37;17.10;;;8.80;99.90;;;;;;5090675;28;20496;-53
2023/04/07 10:08:31;;;;;;;37.93;17.50;;;8.90;99.90;;;;;;5090395;28;20391;-54
2023/04/07 10:11:00;;;;;;;37.97;17.27;;;8.90;99.90;;;;;;5090609;28;20047;-53
2023/04/07 10:13:27;;;;;;;;;;;8.90;99.90;;;;;;5090687;28;20032;-52
2023/04/07 10:15:53;;;;;;;38.13;16.67;;;9.00;99.90;;;;;;5090427;28;20375;-53
2023/04/07 10:18:20;;;;;;;34.17;16.47;;;9.00;99.90;;;;;;5090139;28;20028;-53
2023/04/07 10:20:48;;;;;;;35.20;16.53;;;9.00;99.90;;;;;;5090671;28;20028;-52
2023/04/07 10:23:25;;;;;;;33.50;17.10;;;9.10;99.90;;;;;;5090410;28;20240;-53
2023/04/07 10:25:55;;;;;;;34.77;16.17;;;9.10;99.90;;;;;;5090731;28;20028;-51
2023/04/07 10:28:23;;;;;;;34.73;17.50;;;9.10;99.90;;;;;;5090172;28;20032;-52
2023/04/07 10:30:50;;;;;;;28.10;14.30;;;9.10;99.90;;;;;;5090349;28;20028;-53
2023/04/07 10:33:17;;;;;;;25.67;12.77;;;9.10;99.90;;;;;;5090463;28;20496;-53
2023/04/07 10:36:06;;;;;;;26.37;12.43;;;9.10;99.90;;;;;;5090350;28;20043;-51
2023/04/07 10:38:32;;;;;;;24.85;11.85;;;9.00;99.90;;;;;;5090090;28;20077;-52
2023/04/07 10:40:58;;;;;;;25.03;12.57;;;9.10;99.90;;;;;;5090621;28;20394;-53
2023/04/07 10:43:38;;;;;;;25.00;12.53;;;9.10;99.90;;;;;;5090105;28;20024;-53
2023/04/07 10:46:04;;;;;;;20.83;11.53;;;9.00;99.90;;;;;;5093235;28;20024;-52
2023/04/07 10:48:32;;;;;;;21.77;11.93;;;9.00;99.90;;;;;;5093888;28;20035;-51
2023/04/07 10:51:04;;;;;;;22.70;11.07;;;9.10;99.90;;;;;;5094238;28;20158;-50
2023/04/07 10:53:33;;;;;;;24.13;11.03;;;9.10;99.90;;;;;;5093981;28;20043;-52
2023/04/07 10:55:59;;;;;;;22.17;11.23;;;9.00;99.90;;;;;;5094175;28;20078;-53
2023/04/07 10:58:29;;;;;;;20.83;10.50;;;9.00;99.90;;;;;;5093910;28;20396;-53
2023/04/07 11:01:13;;;;;;;21.23;9.47;;;9.00;99.90;;;;;;5093877;28;20377;-48
2023/04/07 11:03:41;;;;;;;19.27;9.83;;;9.00;99.90;;;;;;5093794;28;20028;-51
2023/04/07 11:06:09;;;;;;;20.87;9.07;;;9.10;99.90;;;;;;5094077;28;20400;-53
2023/04/07 11:08:46;;;;;;;16.33;9.23;;;9.20;99.90;;;;;;5093711;28;20110;-50
2023/04/07 11:11:15;;;;;;;16.03;9.37;;;9.30;99.90;;;;;;5093884;28;20071;-53
2023/04/07 11:13:45;;;;;;;17.73;9.75;;;9.50;99.90;;;;;;5093504;28;20123;-50
2023/04/07 11:16:12;;;;;;;19.13;9.63;;;9.50;99.90;;;;;;5093745;28;20064;-50
2023/04/07 11:18:39;;;;;;;19.43;10.10;;;9.70;99.90;;;;;;5093532;28;20400;-54
2023/04/07 11:21:05;;;;;;;21.20;9.73;;;9.80;99.90;;;;;;5093740;28;20369;-50
2023/04/07 11:23:42;;;;;;;18.47;9.23;;;9.90;99.90;;;;;;5093270;28;20095;-50
2023/04/07 11:26:10;;;;;;;15.17;8.40;;;10.10;99.90;;;;;;5093885;28;20047;-51
2023/04/07 11:28:51;;;;;;;13.10;7.80;;;10.20;99.90;;;;;;5093244;28;20028;-53
2023/04/07 11:31:24;;;;;;;14.57;8.23;;;10.40;99.90;;;;;;5093636;28;20455;-53
2023/04/07 11:33:55;;;;;;;14.80;8.33;;;10.40;99.90;;;;;;5093170;28;20499;-50
2023/04/07 11:36:34;;;;;;;21.57;10.07;;;10.60;99.90;;;;;;5093110;28;20028;-52
2023/04/07 11:39:01;;;;;;;17.23;9.55;;;10.60;99.90;;;;;;5093000;28;20028;-49
2023/04/07 11:41:29;;;;;;;20.70;8.83;;;10.60;99.90;;;;;;5093349;28;20060;-54
2023/04/07 11:44:11;;;;;;;19.20;9.17;;;10.40;99.90;;;;;;5092924;28;20036;-50
2023/04/07 11:46:57;;;;;;;17.43;9.33;;;10.40;99.90;;;;;;5092778;28;20107;-54
2023/04/07 11:49:23;;;;;;;18.90;9.77;;;10.30;99.90;;;;;;5093227;28;20069;-54
2023/04/07 11:52:04;;;;;;;16.33;10.13;;;10.30;99.90;;;;;;5093040;28;20039;-53
2023/04/07 11:54:43;;;;;;;19.83;9.93;;;10.10;99.90;;;;;;5092738;28;20064;-51
2023/04/07 11:57:11;;;;;;;17.27;10.45;;;10.10;99.90;;;;;;5091659;28;20076;-50
2023/04/07 11:59:37;;;;;;;19.10;11.20;;;10.10;99.90;;;;;;5092526;28;20068;-53
2023/04/07 12:02:03;;;;;;;22.03;11.57;;;10.00;99.90;;;;;;5091651;28;20439;-49
2023/04/07 12:04:30;;;;;;;18.93;10.80;;;10.10;99.90;;;;;;5092483;28;20020;-52
2023/04/07 12:07:09;;;;;;;18.57;10.50;;;10.20;99.90;;;;;;5092516;28;20420;-54
2023/04/07 12:09:36;;;;;;;19.80;10.83;;;10.20;99.90;;;;;;5092397;28;20039;-53
2023/04/07 12:12:06;;;;;;;22.63;11.70;;;10.20;99.90;;;;;;5092437;28;20032;-53
2023/04/07 12:14:33;;;;;;;20.77;10.77;;;10.20;99.90;;;;;;5092233;28;20411;-48
2023/04/07 12:17:02;;;;;;;23.60;11.93;;;10.20;99.90;;;;;;5092230;28;20034;-52
2023/04/07 12:19:32;;;;;;;25.52;12.63;;;10.30;99.90;;;;;;5092251;28;20050;-48
2023/04/07 12:21:58;;;;;;;23.67;12.13;;;10.30;99.90;;;;;;5092166;28;20115;-51
2023/04/07 12:24:23;;;;;;;20.87;12.27;;;10.40;99.90;;;;;;5091899;28;20104;-52
2023/04/07 12:26:49;;;;;;;22.43;12.27;;;10.40;99.90;;;;;;5091831;28;20476;-50
2023/04/07 12:29:18;;;;;;;22.97;12.47;;;10.40;99.90;;;;;;5091947;28;20086;-51
2023/04/07 12:31:44;;;;;;;24.73;12.80;;;10.40;99.90;;;;;;5092075;28;20480;-53
2023/04/07 12:34:10;;;;;;;26.20;13.47;;;10.30;99.90;;;;;;5091711;28;20034;-52
2023/04/07 12:36:36;;;;;;;26.03;14.33;;;10.10;99.90;;;;;;5090425;28;20401;-49
2023/04/07 12:39:02;;;;;;;27.83;14.13;;;10.10;99.90;;;;;;5091990;28;20397;-49
2023/04/07 12:41:27;;;;;;;25.70;13.73;;;10.10;99.90;;;;;;5091788;28;20130;-52
2023/04/07 12:43:53;;;;;;;27.37;14.77;;;10.10;99.90;;;;;;5091577;28;20028;-52